Terminal Aerodrome Forecast
Issued by NWS

Home | Current Version | Previous Version | Text Only | Print | Product List | Glossary On
Versions: 1 2 3 4 5 6 7 8 9 10 11 12 13 14 15 16 17 18 19 20 21 22 23 24 25 26 27
000
FTUS44 KFWD 211453 AAA
TAFAFW
TAF AMD
KAFW 211453Z 2115/2212 17013KT P6SM SCT025 BKN250
      TEMPO 2115/2116 BKN019
     FM211800 17016KT P6SM FEW040 SCT250=

USA.gov is the U.S. government's official web portal to all federal, state and local government web resources and services.